Pagina principale
METAR-TAF:

METAR-TAF

Aeroporti :

Taranto, Italia

Aeroporto di Taranto-Grottaglie

latitudine: 40-31N, longitudine: 017-24E, altezza: 64 m

Osservazione

Il bollettino è stato emesso 6 ore e 10 minuti fa, alle 18:50 UTC
Vento 3 kt da ovest/sud-ovest, variando fra sud/sud-ovest e ovest
Temperature 11°C
Umidità 76%
Pressione 1012 hPa
Visibilità 10 km o più
nessuna nube inferiore a 1500 m e nessun cumulonembo

METAR: LIBG 161850Z 24003KT 210V280 CAVOK 11/07 Q1012

Ora: 02:00 (01:00 UTC)

Previsione

Il bollettino è stato emesso 11 ore e 0 minuti fa, alle 14:00 UTC
Previsione valida dal 16 alle 15 UTC al 16 alle 24 UTC
Vento 15 kt da sud-ovest
Visibilità 10 km o più
nessuna nube inferiore a 1500 m e nessun cumulonembo

TAF: LIBG 161400Z 1615/1624 23015KT CAVOK

Osservazioni e previsioni meteorologiche di più di 4000 aeroporti (messaggi METAR e TAF).

Le stazioni disponibili sono rappresentate dai dischi gialli e rossi sulla carta.

Puntare il mouse per vedere il nome della stazione.

Clicca sopra per visualizzare le osservazioni e previsioni meteorologiche.

Per cambiare la mappa : fare clic sui pulsanti verdi con una croce nera per ingrandire, il pulsante verde con un trattino per diminuire, o sulla freccia verde per le mappe adiacenti.


METAR-TAF: